createdAt,value
2018-07-14T00:01:21.442Z,9.40
2018-07-14T00:03:49.077Z,12.00
2018-07-14T00:06:17.041Z,10.30
2018-07-14T00:08:44.656Z,10.70
2018-07-14T00:11:12.272Z,11.37
2018-07-14T00:13:39.837Z,8.10
2018-07-14T00:16:07.619Z,9.30
2018-07-14T00:18:35.250Z,9.87
2018-07-14T00:21:02.863Z,9.17
2018-07-14T00:23:30.374Z,10.67
2018-07-14T00:25:59.773Z,9.60
2018-07-14T00:28:27.953Z,11.80
2018-07-14T00:30:55.811Z,9.03
2018-07-14T00:33:23.373Z,9.50
2018-07-14T00:35:50.960Z,9.93
2018-07-14T00:38:18.589Z,9.60
2018-07-14T00:40:46.288Z,10.57
2018-07-14T00:43:13.812Z,8.47
2018-07-14T00:45:41.385Z,11.63
2018-07-14T00:48:08.941Z,9.00
2018-07-14T00:50:36.682Z,8.70
2018-07-14T00:53:04.446Z,9.23
2018-07-14T00:55:32.030Z,9.83
2018-07-14T00:57:59.593Z,9.23
2018-07-14T01:00:29.531Z,10.57
2018-07-14T01:02:57.276Z,9.93
2018-07-14T01:05:24.829Z,8.80
2018-07-14T01:07:52.421Z,9.40
2018-07-14T01:10:20.678Z,8.97
2018-07-14T01:12:48.296Z,9.07
2018-07-14T01:15:15.873Z,10.80
2018-07-14T01:17:43.585Z,10.80
2018-07-14T01:20:11.167Z,9.00
2018-07-14T01:22:38.736Z,9.33
2018-07-14T01:25:06.408Z,9.67
2018-07-14T01:27:33.957Z,9.23
2018-07-14T01:30:01.731Z,10.77
2018-07-14T01:32:29.302Z,10.40
2018-07-14T01:34:56.897Z,10.07
2018-07-14T01:37:24.446Z,9.63
2018-07-14T01:39:51.962Z,9.77
2018-07-14T01:42:19.537Z,9.67
2018-07-14T01:44:47.116Z,10.80
2018-07-14T01:47:14.678Z,10.63
2018-07-14T01:49:42.247Z,11.80
2018-07-14T01:52:09.836Z,10.73
2018-07-14T01:54:37.389Z,9.30
2018-07-14T01:57:05.113Z,9.17
2018-07-14T01:59:32.746Z,10.33
2018-07-14T02:02:00.329Z,12.83
2018-07-14T02:04:27.877Z,10.00
2018-07-14T02:06:55.458Z,9.10
2018-07-14T02:09:22.989Z,9.83
2018-07-14T02:11:50.601Z,9.40
2018-07-14T02:14:18.137Z,12.43
2018-07-14T02:16:45.801Z,10.77
2018-07-14T02:19:13.307Z,9.67
2018-07-14T02:21:40.895Z,13.50
2018-07-14T02:24:08.537Z,10.30
2018-07-14T02:26:36.130Z,10.20
2018-07-14T02:29:03.749Z,12.80
2018-07-14T02:31:31.334Z,10.80
2018-07-14T02:33:58.876Z,11.77
2018-07-14T02:36:26.468Z,10.20
2018-07-14T02:38:54.097Z,11.87
2018-07-14T02:41:21.686Z,11.13
2018-07-14T02:43:49.361Z,11.23
2018-07-14T02:46:17.724Z,10.67
2018-07-14T02:48:45.311Z,12.70
2018-07-14T02:51:12.911Z,12.77
2018-07-14T02:53:40.529Z,12.53
2018-07-14T02:56:08.105Z,11.90
2018-07-14T02:58:35.663Z,10.47
2018-07-14T03:01:03.356Z,11.93
2018-07-14T03:03:30.915Z,16.47
2018-07-14T03:05:58.477Z,13.07
2018-07-14T03:08:26.077Z,11.17
2018-07-14T03:10:53.564Z,11.90
2018-07-14T03:13:21.179Z,17.60
2018-07-14T03:15:48.756Z,11.67
2018-07-14T03:18:16.385Z,11.77
2018-07-14T03:20:43.925Z,12.70
2018-07-14T03:23:11.522Z,11.13
2018-07-14T03:25:39.028Z,15.53
2018-07-14T03:28:06.877Z,11.00
2018-07-14T03:30:34.415Z,10.30
2018-07-14T03:33:02.001Z,11.53
2018-07-14T03:35:29.559Z,11.07
2018-07-14T03:37:57.130Z,11.00
2018-07-14T03:40:24.706Z,10.57
2018-07-14T03:42:52.369Z,10.13
2018-07-14T03:45:19.908Z,10.23
2018-07-14T03:47:47.462Z,11.20
2018-07-14T03:50:14.987Z,12.50
2018-07-14T03:52:42.560Z,10.90
2018-07-14T03:55:10.164Z,11.10
2018-07-14T03:57:37.724Z,11.93
2018-07-14T04:00:06.391Z,12.93
2018-07-14T04:02:34.193Z,10.23
2018-07-14T04:05:01.833Z,11.30
2018-07-14T04:07:29.410Z,11.17
2018-07-14T04:09:56.946Z,11.17
2018-07-14T04:12:24.565Z,10.60
2018-07-14T04:14:52.104Z,12.87
2018-07-14T04:17:19.717Z,12.80
2018-07-14T04:19:47.253Z,12.60
2018-07-14T04:22:14.813Z,12.00
2018-07-14T04:24:42.361Z,12.23
2018-07-14T04:27:09.949Z,12.33
2018-07-14T04:29:37.500Z,12.23
2018-07-14T04:32:05.271Z,12.70
2018-07-14T04:34:32.742Z,12.30
2018-07-14T04:37:00.317Z,11.00
2018-07-14T04:39:27.867Z,10.33
2018-07-14T04:41:55.541Z,10.73
2018-07-14T04:44:23.118Z,11.93
2018-07-14T04:46:50.648Z,9.73
2018-07-14T04:49:18.250Z,9.10
2018-07-14T04:51:45.792Z,9.70
2018-07-14T04:54:13.370Z,9.57
2018-07-14T04:56:40.906Z,8.43
2018-07-14T04:59:08.538Z,8.37
2018-07-14T05:01:36.072Z,7.13
2018-07-14T05:04:03.646Z,8.17
2018-07-14T05:06:31.324Z,6.23
2018-07-14T05:08:58.789Z,6.40
2018-07-14T05:11:27.422Z,6.77
2018-07-14T05:13:54.985Z,6.37
2018-07-14T05:16:22.539Z,6.27
2018-07-14T05:18:50.110Z,6.10
2018-07-14T05:21:17.646Z,5.30
2018-07-14T05:23:45.227Z,5.87
2018-07-14T05:26:12.766Z,5.07
2018-07-14T05:28:40.447Z,5.40
2018-07-14T05:31:07.930Z,5.20
2018-07-14T05:33:35.485Z,5.40
2018-07-14T05:36:03.067Z,6.37
2018-07-14T05:38:30.610Z,5.20
2018-07-14T05:40:58.156Z,5.53
2018-07-14T05:43:25.721Z,4.97
2018-07-14T05:45:53.283Z,5.30
2018-07-14T05:48:20.863Z,4.97
2018-07-14T05:50:48.398Z,4.97
2018-07-14T05:53:15.994Z,5.07
2018-07-14T05:55:43.530Z,5.77
2018-07-14T05:58:11.121Z,4.80
2018-07-14T06:00:38.670Z,4.93
2018-07-14T06:03:06.241Z,5.20
2018-07-14T06:05:33.776Z,5.30
2018-07-14T06:08:01.374Z,5.20
2018-07-14T06:10:28.925Z,5.33
2018-07-14T06:12:56.465Z,6.47
2018-07-14T06:15:24.037Z,4.87
2018-07-14T06:17:51.741Z,4.17
2018-07-14T06:20:19.354Z,3.80
2018-07-14T06:22:46.942Z,4.37
2018-07-14T06:25:17.564Z,4.60
2018-07-14T06:27:45.119Z,4.30
2018-07-14T06:30:12.824Z,3.87
2018-07-14T06:32:40.358Z,4.00
2018-07-14T06:35:08.044Z,3.53
2018-07-14T06:37:35.581Z,4.33
2018-07-14T06:40:03.247Z,3.47
2018-07-14T06:42:30.925Z,3.03
2018-07-14T06:44:58.528Z,3.40
2018-07-14T06:47:26.147Z,4.10
2018-07-14T06:49:53.704Z,3.63
2018-07-14T06:52:21.329Z,3.43
2018-07-14T06:54:48.924Z,3.50
2018-07-14T06:57:16.461Z,3.30
2018-07-14T06:59:44.040Z,3.53
2018-07-14T07:02:11.813Z,3.13
2018-07-14T07:04:39.416Z,2.90
2018-07-14T07:07:07.205Z,3.20
2018-07-14T07:09:34.761Z,3.20
2018-07-14T07:12:02.333Z,3.37
2018-07-14T07:14:29.942Z,3.23
2018-07-14T07:16:57.564Z,3.33
2018-07-14T07:19:25.283Z,3.57
2018-07-14T07:21:52.813Z,3.47
2018-07-14T07:24:20.366Z,3.63
2018-07-14T07:26:47.905Z,3.33
2018-07-14T07:29:15.484Z,3.60
2018-07-14T07:31:43.033Z,3.87
2018-07-14T07:34:10.645Z,3.60
2018-07-14T07:36:38.246Z,4.83
2018-07-14T07:39:06.181Z,3.60
2018-07-14T07:41:34.080Z,3.40
2018-07-14T07:44:01.687Z,3.40
2018-07-14T07:46:29.238Z,3.40
2018-07-14T07:48:56.786Z,3.60
2018-07-14T07:51:24.375Z,3.40
2018-07-14T07:53:51.940Z,3.23
2018-07-14T07:56:19.513Z,4.13
2018-07-14T07:58:47.093Z,4.20
2018-07-14T08:01:14.652Z,3.97
2018-07-14T08:03:42.182Z,4.37
2018-07-14T08:06:09.856Z,3.10
2018-07-14T08:08:37.437Z,3.57
2018-07-14T08:11:05.093Z,3.50
2018-07-14T08:13:32.629Z,3.70
2018-07-14T08:16:00.228Z,4.53
2018-07-14T08:18:27.793Z,3.63
2018-07-14T08:20:55.343Z,3.40
2018-07-14T08:23:22.929Z,3.07
2018-07-14T08:25:50.490Z,3.50
2018-07-14T08:28:18.018Z,6.77
2018-07-14T08:30:45.695Z,2.93
2018-07-14T08:33:13.234Z,3.40
2018-07-14T08:35:40.815Z,3.47
2018-07-14T08:38:08.406Z,5.53
2018-07-14T08:40:35.956Z,4.40
2018-07-14T08:43:03.488Z,3.73
2018-07-14T08:45:31.060Z,3.90
2018-07-14T08:47:58.606Z,3.40
2018-07-14T08:50:26.597Z,3.27
2018-07-14T08:52:54.145Z,3.37
2018-07-14T08:55:21.718Z,3.80
2018-07-14T08:57:49.281Z,3.77
2018-07-14T09:00:16.893Z,3.97
2018-07-14T09:02:44.546Z,3.20
2018-07-14T09:05:12.179Z,3.70
2018-07-14T09:07:39.767Z,5.87
2018-07-14T09:10:07.387Z,3.60
2018-07-14T09:12:34.941Z,3.93
2018-07-14T09:15:02.870Z,5.70
2018-07-14T09:17:30.426Z,3.80
2018-07-14T09:19:57.993Z,3.40
2018-07-14T09:22:25.568Z,4.20
2018-07-14T09:24:53.108Z,4.20
2018-07-14T09:27:20.661Z,3.53
2018-07-14T09:29:48.532Z,3.40
2018-07-14T09:32:16.088Z,4.33
2018-07-14T09:34:43.621Z,3.90
2018-07-14T09:37:11.191Z,2.97
2018-07-14T09:39:38.749Z,2.90
2018-07-14T09:42:06.345Z,3.87
2018-07-14T09:44:33.897Z,3.17
2018-07-14T09:47:01.470Z,3.80
2018-07-14T09:49:28.991Z,3.10
2018-07-14T09:51:56.953Z,3.43
2018-07-14T09:54:24.507Z,2.50
2018-07-14T09:56:52.066Z,2.87
2018-07-14T09:59:20.460Z,2.80
2018-07-14T10:01:48.031Z,3.10
2018-07-14T10:04:15.566Z,3.30
2018-07-14T10:06:43.155Z,3.30
2018-07-14T10:09:10.701Z,4.60
2018-07-14T10:11:38.266Z,4.00
2018-07-14T10:14:05.838Z,3.50
2018-07-14T10:16:33.390Z,3.10
2018-07-14T10:19:00.914Z,3.70
2018-07-14T10:21:28.581Z,3.40
2018-07-14T10:23:56.116Z,3.17
2018-07-14T10:26:23.718Z,3.70
2018-07-14T10:28:51.386Z,3.40
2018-07-14T10:31:18.973Z,3.67
2018-07-14T10:33:46.672Z,3.97
2018-07-14T10:36:14.397Z,3.83
2018-07-14T10:38:41.948Z,3.47
2018-07-14T10:41:09.519Z,2.83
2018-07-14T10:43:37.064Z,2.37
2018-07-14T10:46:04.764Z,1.90
2018-07-14T10:48:32.281Z,1.63
2018-07-14T10:50:59.843Z,2.30
2018-07-14T10:53:27.395Z,1.93
2018-07-14T10:55:55.019Z,2.43
2018-07-14T10:58:22.549Z,2.10
2018-07-14T11:00:50.118Z,1.73
2018-07-14T11:03:17.799Z,1.13
2018-07-14T11:05:45.392Z,1.73
2018-07-14T11:08:12.909Z,2.60
2018-07-14T11:10:40.488Z,2.10
2018-07-14T11:13:08.069Z,2.10
2018-07-14T11:15:35.614Z,1.60
2018-07-14T11:18:03.401Z,1.90
2018-07-14T11:20:30.938Z,2.00
2018-07-14T11:22:58.514Z,1.93
2018-07-14T11:25:26.029Z,1.90
2018-07-14T11:27:53.974Z,1.67
2018-07-14T11:30:21.604Z,1.50
2018-07-14T11:32:49.151Z,1.20
2018-07-14T11:35:16.701Z,1.70
2018-07-14T11:37:44.346Z,2.10
2018-07-14T11:40:11.899Z,1.30
2018-07-14T11:42:39.562Z,1.10
2018-07-14T11:45:07.134Z,1.63
2018-07-14T11:47:34.735Z,1.70
2018-07-14T11:50:02.491Z,2.73
2018-07-14T11:52:30.120Z,1.57
2018-07-14T11:54:57.644Z,0.80
2018-07-14T11:57:25.212Z,1.13
2018-07-14T11:59:52.741Z,1.57
2018-07-14T12:02:20.333Z,1.10
2018-07-14T12:04:47.870Z,1.73
2018-07-14T12:07:15.503Z,1.20
2018-07-14T12:09:43.117Z,1.87
2018-07-14T12:12:11.123Z,1.50
2018-07-14T12:14:38.693Z,1.57
2018-07-14T12:17:06.449Z,1.63
2018-07-14T12:19:34.999Z,1.40
2018-07-14T12:22:02.725Z,1.23
2018-07-14T12:24:30.270Z,1.83
2018-07-14T12:26:58.440Z,2.67
2018-07-14T12:29:26.749Z,1.27
2018-07-14T12:31:54.340Z,1.50
2018-07-14T12:34:21.898Z,1.40
2018-07-14T12:36:49.542Z,1.40
2018-07-14T12:39:17.353Z,1.37
2018-07-14T12:41:44.922Z,1.73
2018-07-14T12:44:12.526Z,1.10
2018-07-14T12:46:40.433Z,2.03
2018-07-14T12:49:07.951Z,1.40
2018-07-14T12:51:35.474Z,1.17
2018-07-14T12:54:03.081Z,1.63
2018-07-14T12:56:30.653Z,1.07
2018-07-14T12:58:58.254Z,1.37
2018-07-14T13:01:25.951Z,1.30
2018-07-14T13:03:53.509Z,1.73
2018-07-14T13:06:21.072Z,1.47
2018-07-14T13:08:48.658Z,1.20
2018-07-14T13:11:16.288Z,1.20
2018-07-14T13:13:43.848Z,2.47
2018-07-14T13:16:11.407Z,1.93
2018-07-14T13:18:39.068Z,1.10
2018-07-14T13:21:06.708Z,1.40
2018-07-14T13:23:34.523Z,1.43
2018-07-14T13:26:02.046Z,1.30
2018-07-14T13:28:29.620Z,1.03
2018-07-14T13:30:57.157Z,1.60
2018-07-14T13:33:24.761Z,1.10
2018-07-14T13:35:52.293Z,1.43
2018-07-14T13:38:19.842Z,1.07
2018-07-14T13:40:47.507Z,1.20
2018-07-14T13:43:15.109Z,1.00
2018-07-14T13:45:42.699Z,1.13
2018-07-14T13:48:10.279Z,1.10
2018-07-14T13:50:37.948Z,1.20
2018-07-14T13:53:05.581Z,1.73
2018-07-14T13:55:33.272Z,1.13
2018-07-14T13:58:00.838Z,1.37
2018-07-14T14:00:28.405Z,1.27
2018-07-14T14:02:56.537Z,1.20
2018-07-14T14:05:24.133Z,0.90
2018-07-14T14:07:52.234Z,0.83
2018-07-14T14:10:19.754Z,1.23
2018-07-14T14:12:47.315Z,1.20
2018-07-14T14:15:15.084Z,1.30
2018-07-14T14:17:42.705Z,2.00
2018-07-14T14:20:10.246Z,1.50
2018-07-14T14:22:38.130Z,1.37
2018-07-14T14:25:05.956Z,1.40
2018-07-14T14:27:33.581Z,1.60
2018-07-14T14:30:01.255Z,1.43
2018-07-14T14:32:29.009Z,3.17
2018-07-14T14:34:56.593Z,3.17
2018-07-14T14:37:24.137Z,1.33
2018-07-14T14:39:51.713Z,2.87
2018-07-14T14:42:19.257Z,1.20
2018-07-14T14:44:46.856Z,1.50
2018-07-14T14:47:14.406Z,1.40
2018-07-14T14:49:41.955Z,3.53
2018-07-14T14:52:09.542Z,2.87
2018-07-14T14:54:37.129Z,1.60
2018-07-14T14:57:04.721Z,3.50
2018-07-14T14:59:32.291Z,4.87
2018-07-14T15:01:59.920Z,29.40
2018-07-14T15:04:27.493Z,3.23
2018-07-14T15:06:55.018Z,2.20
2018-07-14T15:09:22.615Z,3.00
2018-07-14T15:11:50.149Z,2.10
2018-07-14T15:14:17.755Z,1.67
2018-07-14T15:16:45.341Z,1.50
2018-07-14T15:19:12.989Z,1.67
2018-07-14T15:21:40.845Z,1.77
2018-07-14T15:24:08.397Z,1.60
2018-07-14T15:26:35.983Z,1.83
2018-07-14T15:29:03.859Z,1.90
2018-07-14T15:31:31.445Z,1.50
2018-07-14T15:33:59.154Z,2.53
2018-07-14T15:36:26.941Z,2.27
2018-07-14T15:38:54.494Z,1.70
2018-07-14T15:41:22.041Z,2.70
2018-07-14T15:43:49.622Z,2.00
2018-07-14T15:46:17.362Z,1.60
2018-07-14T15:48:44.954Z,2.07
2018-07-14T15:51:12.485Z,2.20
2018-07-14T15:53:40.148Z,2.17
2018-07-14T15:56:07.694Z,2.40
2018-07-14T15:58:35.308Z,3.20
2018-07-14T16:01:02.954Z,1.80
2018-07-14T16:03:30.556Z,1.80
2018-07-14T16:05:58.297Z,1.93
2018-07-14T16:08:25.884Z,2.13
2018-07-14T16:10:53.445Z,2.13
2018-07-14T16:13:21.172Z,1.77
2018-07-14T16:15:48.762Z,1.70
2018-07-14T16:18:16.303Z,1.70
2018-07-14T16:20:43.873Z,1.90
2018-07-14T16:23:11.414Z,1.77
2018-07-14T16:25:38.989Z,3.23
2018-07-14T16:28:06.542Z,1.87
2018-07-14T16:30:35.725Z,2.07
2018-07-14T16:33:03.387Z,1.97
2018-07-14T16:35:31.035Z,2.30
2018-07-14T16:37:58.598Z,1.67
2018-07-14T16:40:26.218Z,1.67
2018-07-14T16:42:53.816Z,1.90
2018-07-14T16:45:21.406Z,2.70
2018-07-14T16:47:49.060Z,2.00
2018-07-14T16:50:16.753Z,2.33
2018-07-14T16:52:44.250Z,1.80
2018-07-14T16:55:11.856Z,1.77
2018-07-14T16:57:39.490Z,4.30
2018-07-14T17:00:07.823Z,2.40
2018-07-14T17:02:35.680Z,1.80
2018-07-14T17:05:03.376Z,1.73
2018-07-14T17:07:30.912Z,2.93
2018-07-14T17:09:58.552Z,2.93
2018-07-14T17:12:26.265Z,1.93
2018-07-14T17:14:53.838Z,1.93
2018-07-14T17:17:21.377Z,1.70
2018-07-14T17:19:48.942Z,1.70
2018-07-14T17:22:16.493Z,1.70
2018-07-14T17:24:44.079Z,2.93
2018-07-14T17:27:11.670Z,1.40
2018-07-14T17:29:39.207Z,1.70
2018-07-14T17:32:06.736Z,1.40
2018-07-14T17:34:34.308Z,1.73
2018-07-14T17:37:01.873Z,1.50
2018-07-14T17:39:29.523Z,1.20
2018-07-14T17:41:57.072Z,1.60
2018-07-14T17:44:24.880Z,1.57
2018-07-14T17:46:52.509Z,2.60
2018-07-14T17:49:20.168Z,1.57
2018-07-14T17:51:47.768Z,1.67
2018-07-14T17:54:15.352Z,5.70
2018-07-14T17:56:42.959Z,3.37
2018-07-14T17:59:10.488Z,2.30
2018-07-14T18:01:38.098Z,2.67
2018-07-14T18:04:05.650Z,1.97
2018-07-14T18:06:33.200Z,2.07
2018-07-14T18:09:00.747Z,2.20
2018-07-14T18:11:28.363Z,1.70
2018-07-14T18:13:55.900Z,2.00
2018-07-14T18:16:23.508Z,2.27
2018-07-14T18:18:51.104Z,2.37
2018-07-14T18:21:18.742Z,2.90
2018-07-14T18:23:46.308Z,2.37
2018-07-14T18:26:13.895Z,1.90
2018-07-14T18:28:41.424Z,1.70
2018-07-14T18:31:08.977Z,2.33
2018-07-14T18:33:36.640Z,2.50
2018-07-14T18:36:04.341Z,1.77
2018-07-14T18:38:31.910Z,1.93
2018-07-14T18:40:59.477Z,2.03
2018-07-14T18:43:27.019Z,2.43
2018-07-14T18:45:54.582Z,3.10
2018-07-14T18:48:22.230Z,1.80
2018-07-14T18:50:49.780Z,1.80
2018-07-14T18:53:17.325Z,1.10
2018-07-14T18:55:44.976Z,1.17
2018-07-14T18:58:12.512Z,1.60
2018-07-14T19:00:40.117Z,2.00
2018-07-14T19:03:07.726Z,1.30
2018-07-14T19:05:35.284Z,1.83
2018-07-14T19:08:02.975Z,1.70
2018-07-14T19:10:30.552Z,1.53
2018-07-14T19:12:58.105Z,2.30
2018-07-14T19:15:25.661Z,1.97
2018-07-14T19:17:53.217Z,1.90
2018-07-14T19:20:20.782Z,2.03
2018-07-14T19:22:48.360Z,2.33
2018-07-14T19:25:15.878Z,2.07
2018-07-14T19:27:43.471Z,2.47
2018-07-14T19:30:11.050Z,1.50
2018-07-14T19:32:38.642Z,2.37
2018-07-14T19:35:06.611Z,1.70
2018-07-14T19:37:34.119Z,1.90
2018-07-14T19:40:01.678Z,1.60
2018-07-14T19:42:29.280Z,1.33
2018-07-14T19:44:56.809Z,1.70
2018-07-14T19:47:24.335Z,2.03
2018-07-14T19:49:51.991Z,1.63
2018-07-14T19:52:19.546Z,1.90
2018-07-14T19:54:47.137Z,8.67
2018-07-14T19:57:14.767Z,2.53
2018-07-14T19:59:42.299Z,2.00
2018-07-14T20:02:09.858Z,1.93
2018-07-14T20:04:37.398Z,2.47
2018-07-14T20:07:05.017Z,1.43
2018-07-14T20:09:32.605Z,1.70
2018-07-14T20:12:00.223Z,2.50
2018-07-14T20:14:27.767Z,2.27
2018-07-14T20:16:55.325Z,2.20
2018-07-14T20:19:22.924Z,2.13
2018-07-14T20:21:50.490Z,3.13
2018-07-14T20:24:18.101Z,2.17
2018-07-14T20:26:45.730Z,2.07
2018-07-14T20:29:13.252Z,2.00
2018-07-14T20:31:40.814Z,1.83
2018-07-14T20:34:08.361Z,1.70
2018-07-14T20:36:35.942Z,2.83
2018-07-14T20:39:04.082Z,2.17
2018-07-14T20:41:31.881Z,2.23
2018-07-14T20:43:59.277Z,1.73
2018-07-14T20:46:26.969Z,13.13
2018-07-14T20:48:54.506Z,2.13
2018-07-14T20:51:22.085Z,1.70
2018-07-14T20:53:49.647Z,1.73
2018-07-14T20:56:17.615Z,1.80
2018-07-14T20:58:45.174Z,1.73
2018-07-14T21:01:12.736Z,2.00
2018-07-14T21:03:40.306Z,1.90
2018-07-14T21:06:07.854Z,1.97
2018-07-14T21:08:35.421Z,1.83
2018-07-14T21:11:02.994Z,1.70
2018-07-14T21:13:30.558Z,2.00
2018-07-14T21:15:58.315Z,2.17
2018-07-14T21:18:25.952Z,1.80
2018-07-14T21:20:53.629Z,1.80
2018-07-14T21:23:21.110Z,1.80
2018-07-14T21:25:48.673Z,2.20
2018-07-14T21:28:16.216Z,2.00
2018-07-14T21:30:43.746Z,2.10
2018-07-14T21:33:11.354Z,2.30
2018-07-14T21:35:38.862Z,1.93
2018-07-14T21:38:06.438Z,2.33
2018-07-14T21:40:33.984Z,1.93
2018-07-14T21:43:01.536Z,2.23
2018-07-14T21:45:29.050Z,3.00
2018-07-14T21:47:56.632Z,2.50
2018-07-14T21:50:24.199Z,2.40
2018-07-14T21:52:51.817Z,1.87
2018-07-14T21:55:19.366Z,2.10
2018-07-14T21:57:46.930Z,2.07
2018-07-14T22:00:35.939Z,2.07
2018-07-14T22:03:05.194Z,1.60
2018-07-14T22:32:34.978Z,1.77
2018-07-14T22:35:02.501Z,1.60
2018-07-14T22:37:30.124Z,1.40
2018-07-14T22:39:57.664Z,1.70
2018-07-14T22:42:25.196Z,1.83
2018-07-14T22:44:52.745Z,1.60
2018-07-14T22:47:20.284Z,3.00
2018-07-14T22:49:47.871Z,1.70
2018-07-14T22:52:15.514Z,3.17
2018-07-14T22:54:43.072Z,1.87
2018-07-14T22:57:10.606Z,1.50
2018-07-14T22:59:38.179Z,1.40
2018-07-14T23:02:05.734Z,2.00
2018-07-14T23:04:33.589Z,1.87
2018-07-14T23:07:01.130Z,1.90
2018-07-14T23:09:28.702Z,1.67
2018-07-14T23:11:56.288Z,2.07
2018-07-14T23:14:23.918Z,1.97
2018-07-14T23:16:51.454Z,2.17
2018-07-14T23:19:19.075Z,2.20
2018-07-14T23:21:46.695Z,2.10
2018-07-14T23:24:14.430Z,2.33
2018-07-14T23:26:41.953Z,2.10
2018-07-14T23:29:09.513Z,2.00
2018-07-14T23:31:37.078Z,2.43
2018-07-14T23:34:04.823Z,2.50
2018-07-14T23:36:32.368Z,5.50
2018-07-14T23:38:59.956Z,2.77
2018-07-14T23:41:27.574Z,2.50
2018-07-14T23:43:55.143Z,2.80
2018-07-14T23:46:22.830Z,2.33
2018-07-14T23:48:50.479Z,3.20
2018-07-14T23:51:18.030Z,2.30
2018-07-14T23:53:45.921Z,3.27
2018-07-14T23:56:13.494Z,2.10
2018-07-14T23:58:41.066Z,2.70
